createdAt,value
2019-03-13T00:01:30.000Z,33.37
2019-03-13T00:11:30.000Z,33.378
2019-03-13T00:21:30.000Z,33.516
2019-03-13T00:31:30.000Z,33.459
2019-03-13T00:41:30.000Z,33.511
2019-03-13T00:51:30.000Z,33.583
2019-03-13T01:01:30.000Z,33.625
2019-03-13T01:11:30.000Z,33.557
2019-03-13T01:21:30.000Z,33.587
2019-03-13T01:31:30.000Z,33.662
2019-03-13T01:41:30.000Z,33.703
2019-03-13T01:51:30.000Z,33.808
2019-03-13T02:01:30.000Z,33.794
2019-03-13T02:11:30.000Z,33.75
2019-03-13T02:21:30.000Z,33.791
2019-03-13T02:31:30.000Z,33.756
2019-03-13T02:41:30.000Z,33.808
2019-03-13T02:51:30.000Z,33.796
2019-03-13T03:01:31.000Z,33.891
2019-03-13T03:11:31.000Z,33.922
2019-03-13T03:21:31.000Z,33.768
2019-03-13T03:31:31.000Z,33.972
2019-03-13T03:41:31.000Z,34.024
2019-03-13T03:51:31.000Z,34.021
2019-03-13T04:01:31.000Z,33.988
2019-03-13T04:11:31.000Z,34.105
2019-03-13T04:21:31.000Z,34.06
2019-03-13T04:31:31.000Z,34.144
2019-03-13T04:41:31.000Z,34.217
2019-03-13T04:51:31.000Z,34.151
2019-03-13T05:01:31.000Z,34.15
2019-03-13T05:11:31.000Z,34.009
2019-03-13T05:21:31.000Z,33.998
2019-03-13T05:31:31.000Z,33.889
2019-03-13T05:41:31.000Z,33.856
2019-03-13T05:51:31.000Z,33.759
2019-03-13T06:01:31.000Z,33.683
2019-03-13T06:11:31.000Z,33.542
2019-03-13T06:21:31.000Z,33.522
2019-03-13T06:31:31.000Z,33.467
2019-03-13T06:41:31.000Z,33.305
2019-03-13T06:51:31.000Z,33.25
2019-03-13T07:01:31.000Z,33.187
2019-03-13T07:11:31.000Z,33.219
2019-03-13T07:21:31.000Z,33.123
2019-03-13T07:31:31.000Z,33.23
2019-03-13T07:41:31.000Z,32.944
2019-03-13T07:51:31.000Z,32.501
2019-03-13T08:01:33.000Z,32.329
2019-03-13T08:11:31.000Z,32.305
2019-03-13T08:21:31.000Z,32.263
2019-03-13T08:31:31.000Z,32.375
2019-03-13T08:41:31.000Z,32.443
2019-03-13T08:51:31.000Z,32.734
2019-03-13T09:01:31.000Z,33.143
2019-03-13T09:11:31.000Z,33.279
2019-03-13T09:21:31.000Z,33.357
2019-03-13T09:31:32.000Z,33.107
2019-03-13T09:41:31.000Z,34.594
2019-03-13T09:51:31.000Z,35.983
2019-03-13T10:01:31.000Z,37.156
2019-03-13T10:11:31.000Z,38
2019-03-13T10:21:31.000Z,38.719
2019-03-13T10:31:31.000Z,39.1
2019-03-13T10:41:31.000Z,39.578
2019-03-13T10:51:31.000Z,39.876
2019-03-13T11:01:31.000Z,40.01
2019-03-13T11:11:32.000Z,40.135
2019-03-13T11:21:32.000Z,40.327
2019-03-13T11:31:32.000Z,40.361
2019-03-13T11:41:32.000Z,40.484
2019-03-13T11:51:32.000Z,40.584
2019-03-13T12:11:32.000Z,40.621
2019-03-13T12:21:32.000Z,40.59
2019-03-13T12:31:32.000Z,40.56
2019-03-13T12:41:32.000Z,40.602
2019-03-13T12:51:32.000Z,40.526
2019-03-13T13:01:32.000Z,40.459
2019-03-13T13:11:32.000Z,40.416
2019-03-13T13:21:32.000Z,40.295
2019-03-13T13:31:32.000Z,40.217
2019-03-13T13:41:32.000Z,40.03
2019-03-13T13:51:32.000Z,39.919
2019-03-13T14:01:32.000Z,39.659
2019-03-13T14:11:32.000Z,39.516
2019-03-13T14:21:32.000Z,39.307
2019-03-13T14:31:32.000Z,39.089
2019-03-13T14:41:32.000Z,38.978
2019-03-13T14:51:32.000Z,38.878
2019-03-13T15:01:32.000Z,38.508
2019-03-13T15:11:32.000Z,38.474
2019-03-13T15:21:32.000Z,38.223
2019-03-13T15:31:32.000Z,38.209
2019-03-13T15:41:32.000Z,37.969
2019-03-13T15:51:32.000Z,37.989
2019-03-13T16:11:32.000Z,37.737
2019-03-13T16:21:32.000Z,37.55
2019-03-13T16:31:32.000Z,37.472
2019-03-13T16:41:32.000Z,37.255
2019-03-13T16:51:32.000Z,37.219
2019-03-13T17:01:33.000Z,37.079
2019-03-13T17:11:32.000Z,37.078
2019-03-13T17:21:32.000Z,36.949
2019-03-13T17:31:32.000Z,36.945
2019-03-13T17:41:32.000Z,36.782
2019-03-13T17:51:32.000Z,36.619
2019-03-13T18:01:33.000Z,36.66
2019-03-13T18:11:32.000Z,36.474
2019-03-13T18:21:32.000Z,36.451
2019-03-13T18:31:32.000Z,36.33
2019-03-13T18:41:32.000Z,36.295
2019-03-13T18:51:32.000Z,36.379
2019-03-13T19:01:33.000Z,36.334
2019-03-13T19:11:33.000Z,36.161
2019-03-13T19:21:33.000Z,36.158
2019-03-13T19:31:33.000Z,36.166
2019-03-13T19:41:33.000Z,36.026
2019-03-13T19:51:33.000Z,35.926
2019-03-13T20:01:33.000Z,35.86
2019-03-13T20:11:33.000Z,35.825
2019-03-13T20:21:33.000Z,35.617
2019-03-13T20:31:33.000Z,35.46
2019-03-13T20:41:33.000Z,38.502
2019-03-13T20:51:33.000Z,38.39
2019-03-13T21:01:33.000Z,37.93
2019-03-13T21:11:33.000Z,37.831
2019-03-13T21:21:33.000Z,37.817
2019-03-13T21:31:33.000Z,37.778
2019-03-13T21:41:33.000Z,37.916
2019-03-13T21:51:33.000Z,37.905
2019-03-13T22:01:33.000Z,37.775
2019-03-13T22:11:33.000Z,37.633
2019-03-13T22:21:33.000Z,37.793
2019-03-13T22:31:33.000Z,37.642
2019-03-13T22:41:33.000Z,37.65
2019-03-13T22:51:33.000Z,37.65
2019-03-13T23:01:33.000Z,37.659
2019-03-13T23:11:33.000Z,37.786
2019-03-13T23:21:33.000Z,37.761
2019-03-13T23:31:34.000Z,37.802
2019-03-13T23:41:33.000Z,37.907
2019-03-13T23:51:37.000Z,37.98
